Time;durP1;ratioP1;P1;durP2;ratioP2;P2;SDS_P1;SDS_P2;PMS_P1;PMS_P2;Temp;Humidity;BMP_temperature;BMP_pressure;BME280_temperature;BME280_humidity;BME280_pressure;Samples;Min_cycle;Max_cycle;Signal;HPM_P1;HPM_P2
2023/12/16 00:01:46;;;;;;;36.40;8.10;;;6.90;99.90;;;;;;4990282;28;20026;-73
2023/12/16 00:04:12;;;;;;;50.33;10.07;;;6.90;99.90;;;;;;4990797;28;20030;-73
2023/12/16 00:06:37;;;;;;;37.17;8.50;;;6.90;99.90;;;;;;4989886;28;20030;-72
2023/12/16 00:09:03;;;;;;;38.10;8.57;;;7.00;99.90;;;;;;4991416;28;20045;-72
2023/12/16 00:11:29;;;;;;;32.92;7.90;;;7.00;99.90;;;;;;4991772;28;20026;-73
2023/12/16 00:13:54;;;;;;;37.58;7.32;;;7.00;99.90;;;;;;4991420;28;20085;-73
2023/12/16 00:16:20;;;;;;;33.65;6.70;;;7.00;99.90;;;;;;5006167;28;20026;-74
2023/12/16 00:18:45;;;;;;;32.58;7.35;;;7.00;99.90;;;;;;4991493;28;20057;-73
2023/12/16 00:21:11;;;;;;;29.80;6.75;;;7.10;99.90;;;;;;4991378;28;20027;-72
2023/12/16 00:23:36;;;;;;;29.90;6.85;;;7.10;99.90;;;;;;4990775;28;20689;-72
2023/12/16 00:26:02;;;;;;;32.30;6.70;;;7.10;99.90;;;;;;4989887;28;20089;-72
2023/12/16 00:28:28;;;;;;;36.38;6.75;;;7.10;99.90;;;;;;4989990;28;20018;-74
2023/12/16 00:30:53;;;;;;;32.60;7.30;;;7.10;99.90;;;;;;4991503;28;20058;-73
2023/12/16 00:33:19;;;;;;;31.30;6.30;;;7.10;99.90;;;;;;4991446;28;20093;-73
2023/12/16 00:35:45;;;;;;;25.73;7.18;;;7.10;99.90;;;;;;4991318;28;20030;-72
2023/12/16 00:38:10;;;;;;;32.50;6.82;;;7.10;99.90;;;;;;4991062;28;20019;-72
2023/12/16 00:40:36;;;;;;;30.38;7.13;;;7.10;99.90;;;;;;4989902;28;20037;-72
2023/12/16 00:43:03;;;;;;;35.97;6.65;;;7.20;99.90;;;;;;4990228;28;20058;-71
2023/12/16 00:45:28;;;;;;;26.00;6.45;;;7.20;99.90;;;;;;4990543;28;20033;-72
2023/12/16 00:47:54;;;;;;;27.45;6.75;;;7.20;99.90;;;;;;4994237;28;20031;-72
2023/12/16 00:50:20;;;;;;;32.15;6.97;;;7.20;99.90;;;;;;4994820;28;20030;-73
2023/12/16 00:52:45;;;;;;;35.17;6.22;;;7.20;99.90;;;;;;4995694;28;20022;-71
2023/12/16 00:55:11;;;;;;;33.75;7.53;;;7.20;99.90;;;;;;4995004;28;20046;-72
2023/12/16 00:57:38;;;;;;;34.38;7.20;;;7.20;99.90;;;;;;4993160;28;20086;-74
2023/12/16 01:00:04;;;;;;;27.35;6.30;;;7.20;99.90;;;;;;4994739;28;20018;-74
2023/12/16 01:02:29;;;;;;;26.35;6.00;;;7.20;99.90;;;;;;4995123;28;20019;-73
2023/12/16 01:04:55;;;;;;;30.95;6.75;;;7.20;99.90;;;;;;4995084;28;20021;-73
2023/12/16 01:07:21;;;;;;;22.27;5.80;;;7.20;99.90;;;;;;4993933;28;20022;-73
2023/12/16 01:09:46;;;;;;;29.20;5.85;;;7.20;99.90;;;;;;4995258;28;20030;-70
2023/12/16 01:12:12;;;;;;;27.27;5.95;;;7.20;99.90;;;;;;4995632;28;20030;-74
2023/12/16 01:14:37;;;;;;;24.05;6.13;;;7.20;99.90;;;;;;4994659;28;20380;-73
2023/12/16 01:17:03;;;;;;;28.33;6.00;;;7.30;99.90;;;;;;4994791;28;20034;-72
2023/12/16 01:19:28;;;;;;;21.45;5.30;;;7.30;99.90;;;;;;4994626;28;20037;-72
2023/12/16 01:21:54;;;;;;;33.85;6.15;;;7.30;99.90;;;;;;4995534;28;20031;-73
2023/12/16 01:24:21;;;;;;;24.70;5.70;;;7.30;99.90;;;;;;4993192;28;20045;-74
2023/12/16 01:26:46;;;;;;;25.17;5.55;;;7.30;99.90;;;;;;4994509;28;20044;-72
2023/12/16 01:29:12;;;;;;;21.70;5.88;;;7.30;99.90;;;;;;4994322;28;20053;-73
2023/12/16 01:31:37;;;;;;;33.92;6.55;;;7.30;99.90;;;;;;4994238;28;20038;-73
2023/12/16 01:34:03;;;;;;;26.58;5.65;;;7.30;99.90;;;;;;4994058;28;20038;-72
2023/12/16 01:36:28;;;;;;;26.48;5.93;;;7.30;99.90;;;;;;4993841;28;20122;-72
2023/12/16 01:38:54;;;;;;;25.05;5.93;;;7.30;99.90;;;;;;4994157;28;20042;-73
2023/12/16 01:41:20;;;;;;;27.08;6.05;;;7.30;99.90;;;;;;4994274;28;20023;-72
2023/12/16 01:43:46;;;;;;;21.88;5.35;;;7.30;99.90;;;;;;4995150;28;20089;-71
2023/12/16 01:46:11;;;;;;;25.83;5.75;;;7.40;99.90;;;;;;4993767;28;20357;-72
2023/12/16 01:48:40;;;;;;;25.15;5.80;;;7.40;99.90;;;;;;4994026;28;20037;-73
2023/12/16 01:51:05;;;;;;;24.55;5.38;;;7.40;99.90;;;;;;4994269;28;20018;-73
2023/12/16 01:53:32;;;;;;;23.65;5.47;;;7.40;99.90;;;;;;4993056;28;20046;-72
2023/12/16 01:55:58;;;;;;;23.95;5.43;;;7.40;99.90;;;;;;4992136;28;20054;-73
2023/12/16 01:58:24;;;;;;;19.88;4.85;;;7.40;99.90;;;;;;4993674;28;20026;-72
2023/12/16 02:00:54;;;;;;;24.35;5.00;;;7.40;99.90;;;;;;4992657;28;20078;-73
2023/12/16 02:03:22;;;;;;;18.35;5.43;;;7.40;99.90;;;;;;4992828;28;20062;-74
2023/12/16 02:05:47;;;;;;;25.88;6.20;;;7.40;99.90;;;;;;4994237;28;20042;-74
2023/12/16 02:08:13;;;;;;;23.30;5.47;;;7.40;99.90;;;;;;4993834;28;20030;-72
2023/12/16 02:10:39;;;;;;;14.40;4.65;;;7.40;99.90;;;;;;4993507;28;20026;-74
2023/12/16 02:13:05;;;;;;;23.67;5.95;;;7.50;99.90;;;;;;4993405;28;20042;-73
2023/12/16 02:15:30;;;;;;;22.02;5.43;;;7.50;99.90;;;;;;4993946;28;20019;-73
2023/12/16 02:17:56;;;;;;;22.65;5.40;;;7.50;99.90;;;;;;5009234;28;20027;-73
2023/12/16 02:20:22;;;;;;;27.83;5.43;;;7.50;99.90;;;;;;4992446;28;20030;-73
2023/12/16 02:22:48;;;;;;;19.30;5.25;;;7.50;99.90;;;;;;4993454;28;20106;-72
2023/12/16 02:25:14;;;;;;;26.70;5.65;;;7.50;99.90;;;;;;4993605;28;20030;-72
2023/12/16 02:27:46;;;;;;;22.08;4.93;;;7.50;99.90;;;;;;4992591;28;20527;-73
2023/12/16 02:30:12;;;;;;;17.88;4.38;;;7.50;99.90;;;;;;4993139;28;20035;-71
2023/12/16 02:32:38;;;;;;;16.50;4.82;;;7.50;99.90;;;;;;4990700;28;20034;-73
2023/12/16 02:35:04;;;;;;;24.45;4.90;;;7.50;99.90;;;;;;4993173;28;20034;-72
2023/12/16 02:37:30;;;;;;;19.95;4.85;;;7.50;99.90;;;;;;4992951;28;20026;-73
2023/12/16 02:39:55;;;;;;;16.15;4.57;;;7.50;99.90;;;;;;4993956;28;20030;-73
2023/12/16 02:42:21;;;;;;;17.83;4.65;;;7.50;99.90;;;;;;4990723;28;20037;-75
2023/12/16 02:44:47;;;;;;;18.65;4.53;;;7.50;99.90;;;;;;4992032;28;20034;-74
2023/12/16 02:47:13;;;;;;;20.88;4.70;;;7.50;99.90;;;;;;4992728;28;20022;-71
2023/12/16 02:49:38;;;;;;;21.05;4.00;;;7.50;99.90;;;;;;4993343;28;20023;-69
2023/12/16 02:52:04;;;;;;;17.65;4.03;;;7.50;99.90;;;;;;4992920;28;20030;-73
2023/12/16 02:54:30;;;;;;;23.13;4.38;;;7.40;99.90;;;;;;4991994;28;20043;-72
2023/12/16 02:56:56;;;;;;;15.57;4.40;;;7.50;99.90;;;;;;4992614;28;20030;-72
2023/12/16 02:59:22;;;;;;;20.13;4.43;;;7.60;99.90;;;;;;4993216;28;20027;-71
2023/12/16 03:01:47;;;;;;;16.27;4.22;;;7.50;99.90;;;;;;4991980;28;20041;-75
2023/12/16 03:04:13;;;;;;;15.07;3.97;;;7.40;99.90;;;;;;4992501;28;20026;-70
2023/12/16 03:06:45;;;;;;;14.02;4.07;;;7.50;99.90;;;;;;4989967;28;20030;-74
2023/12/16 03:09:11;;;;;;;18.05;4.40;;;7.40;99.90;;;;;;4991395;28;20027;-73
2023/12/16 03:11:38;;;;;;;15.73;4.10;;;7.40;99.90;;;;;;4990854;28;20018;-73
2023/12/16 03:14:04;;;;;;;14.90;3.67;;;7.40;99.90;;;;;;4990485;28;20074;-70
2023/12/16 03:16:33;;;;;;;18.65;3.90;;;7.40;99.90;;;;;;5006857;28;20438;-71
2023/12/16 03:18:59;;;;;;;21.77;4.60;;;7.40;99.90;;;;;;4990828;28;20031;-72
2023/12/16 03:21:24;;;;;;;19.13;3.95;;;7.40;99.90;;;;;;4992809;28;20065;-72
2023/12/16 03:23:50;;;;;;;14.13;3.67;;;7.40;99.90;;;;;;4990918;28;20030;-72
2023/12/16 03:26:15;;;;;;;11.93;3.67;;;7.40;99.90;;;;;;4992719;28;20880;-71
2023/12/16 03:28:41;;;;;;;13.90;4.15;;;7.30;99.90;;;;;;4991504;28;20031;-72
2023/12/16 03:31:06;;;;;;;20.73;4.32;;;7.30;99.90;;;;;;4992202;28;20057;-72
2023/12/16 03:33:32;;;;;;;14.57;4.35;;;7.30;99.90;;;;;;4991631;28;20043;-73
2023/12/16 03:35:57;;;;;;;12.48;3.30;;;7.30;99.90;;;;;;4991910;28;20018;-72
2023/12/16 03:38:23;;;;;;;16.30;3.45;;;7.30;99.90;;;;;;4991880;28;20065;-73
2023/12/16 03:40:49;;;;;;;13.32;3.22;;;7.30;99.90;;;;;;4991614;28;20035;-74
2023/12/16 03:43:17;;;;;;;26.55;3.70;;;7.30;99.90;;;;;;4991663;28;20018;-71
2023/12/16 03:45:43;;;;;;;18.85;4.28;;;7.20;99.90;;;;;;4991450;28;20082;-72
2023/12/16 03:48:09;;;;;;;13.70;3.28;;;7.30;99.90;;;;;;4991672;28;20022;-71
2023/12/16 03:50:34;;;;;;;10.45;3.22;;;7.20;99.90;;;;;;4992264;28;20535;-73
2023/12/16 03:53:00;;;;;;;20.15;3.85;;;7.20;99.90;;;;;;4990862;28;20052;-71
2023/12/16 03:55:25;;;;;;;13.05;3.03;;;7.20;99.90;;;;;;4990563;28;20037;-72
2023/12/16 03:57:51;;;;;;;12.38;3.08;;;7.20;99.90;;;;;;4991910;28;21234;-74
2023/12/16 04:00:17;;;;;;;18.17;3.10;;;7.20;99.90;;;;;;4991078;28;20039;-74
2023/12/16 04:02:42;;;;;;;16.60;3.50;;;7.20;99.90;;;;;;4989996;28;20472;-74
2023/12/16 04:05:08;;;;;;;14.45;3.25;;;7.20;99.90;;;;;;4991642;28;20030;-71
2023/12/16 04:07:34;;;;;;;12.27;3.38;;;7.10;99.90;;;;;;4991174;28;20431;-73
2023/12/16 04:10:00;;;;;;;11.88;2.83;;;7.10;99.90;;;;;;4991588;28;20023;-73
2023/12/16 04:12:25;;;;;;;13.75;3.60;;;7.00;99.90;;;;;;5006531;28;20049;-72
2023/12/16 04:14:51;;;;;;;12.20;3.53;;;7.10;99.90;;;;;;4991749;28;20038;-74
2023/12/16 04:17:17;;;;;;;15.77;3.15;;;7.10;99.90;;;;;;4992175;28;20061;-73
2023/12/16 04:19:50;;;;;;;18.83;3.55;;;7.00;99.90;;;;;;5006893;28;20480;-73
2023/12/16 04:22:15;;;;;;;17.53;3.60;;;7.00;99.90;;;;;;4990440;28;20085;-73
2023/12/16 04:24:41;;;;;;;12.98;3.30;;;7.00;99.90;;;;;;4990406;28;20783;-73
2023/12/16 04:27:06;;;;;;;17.52;3.83;;;7.00;99.90;;;;;;4991407;28;20068;-73
2023/12/16 04:29:32;;;;;;;14.13;3.17;;;7.00;99.90;;;;;;4991529;28;20099;-74
2023/12/16 04:31:57;;;;;;;13.95;4.03;;;7.00;99.90;;;;;;4991648;28;20090;-74
2023/12/16 04:34:23;;;;;;;14.50;3.50;;;6.90;99.90;;;;;;4991612;28;20031;-74
2023/12/16 04:36:49;;;;;;;14.52;3.65;;;7.00;99.90;;;;;;5006761;28;20383;-71
2023/12/16 04:39:14;;;;;;;17.23;3.63;;;6.90;99.90;;;;;;4991953;28;20085;-72
2023/12/16 04:41:40;;;;;;;17.83;3.72;;;6.90;99.90;;;;;;4991479;28;20090;-74
2023/12/16 04:44:08;;;;;;;21.85;4.38;;;6.90;99.90;;;;;;4989052;28;20148;-73
2023/12/16 04:46:35;;;;;;;17.05;4.28;;;6.90;99.90;;;;;;4990673;28;20105;-73
2023/12/16 04:49:01;;;;;;;17.00;3.75;;;6.90;99.90;;;;;;4990328;28;20132;-74
2023/12/16 04:51:27;;;;;;;17.15;4.05;;;6.90;99.90;;;;;;4991484;28;20022;-73
2023/12/16 04:53:53;;;;;;;15.20;4.18;;;6.80;99.90;;;;;;4989908;28;20051;-73
2023/12/16 04:56:18;;;;;;;12.73;4.20;;;6.80;99.90;;;;;;4988620;28;20034;-75
2023/12/16 04:58:44;;;;;;;16.60;4.35;;;6.80;99.90;;;;;;4988638;28;20079;-73
2023/12/16 05:01:10;;;;;;;17.67;4.80;;;6.80;99.90;;;;;;4989821;28;20045;-73
2023/12/16 05:03:35;;;;;;;15.25;4.30;;;6.80;99.90;;;;;;4988964;28;20045;-74
2023/12/16 05:06:06;;;;;;;13.57;4.60;;;6.80;99.90;;;;;;4990413;28;20086;-73
2023/12/16 05:08:31;;;;;;;19.25;4.25;;;6.70;99.90;;;;;;4991173;28;20546;-72
2023/12/16 05:10:57;;;;;;;10.95;3.95;;;6.80;99.90;;;;;;4989893;28;20072;-74
2023/12/16 05:13:22;;;;;;;19.25;4.55;;;6.70;99.90;;;;;;4989794;28;20098;-73
2023/12/16 05:15:48;;;;;;;15.95;4.28;;;6.70;99.90;;;;;;4991547;28;21028;-74
2023/12/16 05:18:13;;;;;;;13.07;4.53;;;6.70;99.90;;;;;;4988504;28;20137;-73
2023/12/16 05:20:39;;;;;;;16.88;4.40;;;6.60;99.90;;;;;;4991006;28;20338;-73
2023/12/16 05:23:05;;;;;;;19.77;4.63;;;6.60;99.90;;;;;;4991241;28;20046;-73
2023/12/16 05:25:30;;;;;;;18.77;4.45;;;6.70;99.90;;;;;;4990607;28;20031;-70
2023/12/16 05:27:57;;;;;;;22.65;4.63;;;6.60;99.90;;;;;;4987589;28;20145;-72
2023/12/16 05:30:23;;;;;;;15.45;5.00;;;6.60;99.90;;;;;;4991267;28;20046;-72
2023/12/16 05:32:49;;;;;;;15.05;4.25;;;6.60;99.90;;;;;;4992219;28;20026;-72
2023/12/16 05:35:15;;;;;;;18.73;4.88;;;6.60;99.90;;;;;;4995079;28;20030;-73
2023/12/16 05:37:40;;;;;;;18.08;4.88;;;6.50;99.90;;;;;;4994073;28;20033;-69
2023/12/16 05:40:06;;;;;;;11.70;4.35;;;6.50;99.90;;;;;;4994433;28;20090;-70
2023/12/16 05:42:32;;;;;;;21.55;4.97;;;6.50;99.90;;;;;;4989649;28;20649;-72
2023/12/16 05:44:57;;;;;;;14.20;4.65;;;6.50;99.90;;;;;;4993733;28;20026;-73
2023/12/16 05:47:23;;;;;;;20.40;4.45;;;6.50;99.90;;;;;;4994777;28;20014;-71
2023/12/16 05:49:50;;;;;;;22.80;4.75;;;6.50;99.90;;;;;;4991351;28;20097;-72
2023/12/16 05:52:16;;;;;;;21.38;5.07;;;6.60;99.90;;;;;;4992918;28;20023;-72
2023/12/16 05:54:41;;;;;;;17.00;4.28;;;6.60;99.90;;;;;;4994281;28;20035;-72
2023/12/16 05:57:07;;;;;;;22.90;4.70;;;6.60;99.90;;;;;;4988618;28;20038;-71
2023/12/16 05:59:34;;;;;;;18.92;4.80;;;6.70;99.90;;;;;;4990440;28;20031;-70
2023/12/16 06:02:00;;;;;;;18.02;4.47;;;6.70;99.90;;;;;;4991514;28;20025;-69
2023/12/16 06:04:25;;;;;;;20.13;4.40;;;6.70;99.90;;;;;;4992065;28;20109;-70
2023/12/16 06:06:51;;;;;;;23.10;4.10;;;6.70;99.90;;;;;;4993196;28;20030;-71
2023/12/16 06:09:17;;;;;;;17.95;3.97;;;6.80;99.90;;;;;;4989480;28;20039;-71
2023/12/16 06:11:42;;;;;;;19.55;4.30;;;6.80;99.90;;;;;;4992223;28;20026;-70
2023/12/16 06:14:08;;;;;;;19.55;4.68;;;6.80;99.90;;;;;;4992637;28;20086;-72
2023/12/16 06:16:33;;;;;;;21.08;4.85;;;6.80;99.90;;;;;;4993997;28;20025;-72
2023/12/16 06:18:59;;;;;;;23.38;4.47;;;6.80;99.90;;;;;;4992804;28;20038;-69
2023/12/16 06:21:25;;;;;;;19.35;4.20;;;6.90;99.90;;;;;;4993585;28;20020;-71
2023/12/16 06:23:51;;;;;;;15.57;3.60;;;6.90;99.90;;;;;;4993600;28;20029;-72
2023/12/16 06:26:16;;;;;;;20.08;4.18;;;6.90;99.90;;;;;;4993996;28;20052;-70
2023/12/16 06:28:42;;;;;;;18.27;3.95;;;6.90;99.90;;;;;;4993912;28;20023;-71
2023/12/16 06:31:14;;;;;;;20.38;4.22;;;6.90;99.90;;;;;;4993930;28;20370;-71
2023/12/16 06:33:40;;;;;;;16.05;4.55;;;6.90;99.90;;;;;;4990493;28;20060;-71
2023/12/16 06:36:06;;;;;;;16.73;3.88;;;6.90;99.90;;;;;;4993586;28;20026;-69
2023/12/16 06:38:31;;;;;;;16.77;4.93;;;6.90;99.90;;;;;;4993732;28;20040;-72
2023/12/16 06:40:57;;;;;;;21.33;4.68;;;6.90;99.90;;;;;;4990949;28;20030;-71
2023/12/16 06:43:23;;;;;;;19.13;4.43;;;6.90;99.90;;;;;;4991975;28;20091;-70
2023/12/16 06:45:48;;;;;;;18.98;4.43;;;7.00;99.90;;;;;;4992498;28;20069;-70
2023/12/16 06:48:14;;;;;;;17.83;4.07;;;6.90;99.90;;;;;;4992101;28;20184;-72
2023/12/16 06:50:39;;;;;;;19.83;4.30;;;6.90;99.90;;;;;;4993046;28;20077;-72
2023/12/16 06:53:05;;;;;;;20.58;4.15;;;6.90;99.90;;;;;;4993172;28;20472;-71
2023/12/16 06:55:30;;;;;;;17.95;4.32;;;6.90;99.90;;;;;;4993354;28;20034;-70
2023/12/16 06:57:56;;;;;;;19.25;3.95;;;6.90;99.90;;;;;;4991772;28;20019;-71
2023/12/16 07:00:21;;;;;;;14.43;4.13;;;6.90;99.90;;;;;;4991741;28;20049;-70
2023/12/16 07:02:47;;;;;;;21.38;5.28;;;6.90;99.90;;;;;;4991680;28;20490;-70
2023/12/16 07:05:12;;;;;;;19.50;4.78;;;6.90;99.90;;;;;;4990353;28;20115;-69
2023/12/16 07:07:38;;;;;;;25.30;4.35;;;6.90;99.90;;;;;;4992250;28;20049;-69
2023/12/16 07:10:07;;;;;;;20.83;5.00;;;6.90;99.90;;;;;;4991839;28;20031;-69
2023/12/16 07:12:33;;;;;;;21.45;5.07;;;6.90;99.90;;;;;;4990094;28;20113;-69
2023/12/16 07:14:58;;;;;;;15.70;4.28;;;6.90;99.90;;;;;;4991547;28;20070;-71
2023/12/16 07:17:24;;;;;;;17.25;4.13;;;6.90;99.90;;;;;;4990366;28;20026;-70
2023/12/16 07:19:50;;;;;;;20.88;5.03;;;7.00;99.90;;;;;;4991933;28;20022;-71
2023/12/16 07:22:16;;;;;;;20.90;5.00;;;7.00;99.90;;;;;;5006865;28;20040;-70
2023/12/16 07:24:43;;;;;;;23.48;4.95;;;7.00;99.90;;;;;;4992493;28;20081;-70
2023/12/16 07:27:09;;;;;;;18.48;5.05;;;7.00;99.90;;;;;;4990841;28;20117;-71
2023/12/16 07:29:34;;;;;;;20.50;5.82;;;7.00;99.90;;;;;;4992432;28;20042;-69
2023/12/16 07:32:00;;;;;;;23.60;6.30;;;7.00;99.90;;;;;;4988433;28;20045;-68
2023/12/16 07:34:26;;;;;;;24.02;5.97;;;7.00;99.90;;;;;;4989339;28;20141;-70
2023/12/16 07:36:51;;;;;;;24.55;5.47;;;7.00;99.90;;;;;;4992370;28;20459;-71
2023/12/16 07:39:17;;;;;;;20.73;4.88;;;7.00;99.90;;;;;;4992329;28;20519;-70
2023/12/16 07:41:43;;;;;;;27.27;5.60;;;7.00;99.90;;;;;;4986285;28;20066;-70
2023/12/16 07:44:09;;;;;;;24.38;6.05;;;7.10;99.90;;;;;;4986296;28;20027;-71
2023/12/16 07:46:34;;;;;;;30.73;5.75;;;7.10;99.90;;;;;;4991172;28;20035;-70
2023/12/16 07:49:00;;;;;;;21.05;5.78;;;7.10;99.90;;;;;;4990151;28;20026;-69
2023/12/16 07:51:25;;;;;;;19.35;6.68;;;7.10;99.90;;;;;;4989414;28;20479;-70
2023/12/16 07:53:51;;;;;;;22.10;6.22;;;7.10;99.90;;;;;;4991133;28;20035;-70
2023/12/16 07:56:26;;;;;;;28.88;6.05;;;7.10;99.90;;;;;;4984879;28;20030;-72
2023/12/16 07:58:52;;;;;;;31.25;10.02;;;7.10;99.90;;;;;;4990411;28;20495;-71
2023/12/16 08:01:18;;;;;;;57.33;23.85;;;7.10;99.90;;;;;;4989179;28;20026;-72
2023/12/16 08:03:45;;;;;;;32.85;12.82;;;7.10;99.90;;;;;;4989618;28;20034;-71
2023/12/16 08:06:11;;;;;;;26.33;6.88;;;7.10;99.90;;;;;;4989712;28;20069;-72
2023/12/16 08:08:40;;;;;;;24.20;6.78;;;7.20;99.90;;;;;;4990321;28;20061;-70
2023/12/16 08:11:06;;;;;;;34.00;6.57;;;7.30;99.90;;;;;;5004901;28;20069;-72
2023/12/16 08:13:32;;;;;;;19.08;6.15;;;7.30;99.90;;;;;;4990024;28;20038;-69
2023/12/16 08:15:57;;;;;;;27.42;5.80;;;7.30;99.90;;;;;;5006080;28;20045;-71
2023/12/16 08:18:23;;;;;;;33.47;6.82;;;7.40;99.90;;;;;;4991794;28;20022;-72
2023/12/16 08:20:49;;;;;;;25.63;6.13;;;7.40;99.90;;;;;;4989929;28;20031;-72
2023/12/16 08:23:16;;;;;;;28.05;5.65;;;7.40;99.90;;;;;;4987668;28;20048;-73
2023/12/16 08:25:41;;;;;;;30.00;6.78;;;7.50;99.90;;;;;;4991221;28;20030;-68
2023/12/16 08:28:07;;;;;;;23.48;6.85;;;7.50;99.90;;;;;;4987349;28;22462;-70
2023/12/16 08:30:33;;;;;;;36.83;7.53;;;7.50;99.90;;;;;;4989494;28;20042;-71
2023/12/16 08:32:58;;;;;;;35.83;7.78;;;7.60;99.90;;;;;;4985355;28;20026;-72
2023/12/16 08:35:24;;;;;;;36.22;8.45;;;7.60;99.90;;;;;;4990429;28;20034;-69
2023/12/16 08:37:50;;;;;;;39.83;8.02;;;7.60;99.90;;;;;;4987264;28;20070;-70
2023/12/16 08:40:15;;;;;;;30.90;6.28;;;7.60;99.90;;;;;;4990851;28;20034;-67
2023/12/16 08:42:42;;;;;;;31.55;7.47;;;7.60;99.90;;;;;;4984033;28;20027;-72
2023/12/16 08:45:09;;;;;;;44.22;8.50;;;7.70;99.90;;;;;;4985372;28;20027;-70
2023/12/16 08:47:35;;;;;;;30.67;7.13;;;7.70;99.90;;;;;;4991090;28;20046;-70
2023/12/16 08:50:00;;;;;;;28.23;7.53;;;7.70;99.90;;;;;;4989749;28;20034;-70
2023/12/16 08:52:27;;;;;;;34.45;8.05;;;7.70;99.90;;;;;;5004688;28;20094;-71
2023/12/16 08:54:52;;;;;;;34.67;8.32;;;7.70;99.90;;;;;;4988190;28;20039;-72
2023/12/16 08:57:18;;;;;;;37.10;8.13;;;7.70;99.90;;;;;;4987813;28;20086;-72
2023/12/16 08:59:44;;;;;;;30.60;7.88;;;7.70;99.90;;;;;;4985030;28;20031;-67
2023/12/16 09:02:09;;;;;;;36.58;9.40;;;7.70;99.90;;;;;;4986945;28;20030;-69
2023/12/16 09:04:35;;;;;;;41.55;9.25;;;7.70;99.90;;;;;;4986808;28;20035;-70
2023/12/16 09:07:00;;;;;;;24.25;8.63;;;7.70;99.90;;;;;;4989265;28;20054;-69
2023/12/16 09:09:26;;;;;;;35.25;8.65;;;7.80;99.90;;;;;;4991641;28;20049;-70
2023/12/16 09:11:52;;;;;;;39.22;10.05;;;7.70;99.90;;;;;;4993063;28;20031;-70
2023/12/16 09:14:18;;;;;;;42.65;10.15;;;7.70;99.90;;;;;;4988895;28;20047;-70
2023/12/16 09:16:43;;;;;;;39.67;10.40;;;7.70;99.90;;;;;;4994742;28;20500;-68
2023/12/16 09:19:11;;;;;;;43.35;11.10;;;7.70;99.90;;;;;;4993105;28;20117;-68
2023/12/16 09:21:36;;;;;;;35.40;11.43;;;7.70;99.90;;;;;;4990480;28;20023;-70
2023/12/16 09:24:05;;;;;;;42.30;12.43;;;7.70;99.90;;;;;;4990095;28;20034;-68
2023/12/16 09:26:30;;;;;;;45.22;10.85;;;7.70;99.90;;;;;;4988753;28;20073;-69
2023/12/16 09:28:56;;;;;;;43.75;11.50;;;7.70;99.90;;;;;;4993924;28;20050;-70
2023/12/16 09:31:21;;;;;;;50.50;12.60;;;7.70;99.90;;;;;;4989241;28;20475;-70
2023/12/16 09:33:47;;;;;;;50.55;12.00;;;7.70;99.90;;;;;;5008115;28;20060;-69
2023/12/16 09:36:13;;;;;;;41.10;12.43;;;7.70;99.90;;;;;;4991280;28;20118;-71
2023/12/16 09:38:42;;;;;;;50.45;12.77;;;7.70;99.90;;;;;;4994741;28;20034;-69
2023/12/16 09:41:41;;;;;;;51.50;12.82;;;7.70;99.90;;;;;;4991200;28;20027;-69
2023/12/16 09:44:08;;;;;;;41.30;12.68;;;7.70;99.90;;;;;;4992274;28;20639;-71
2023/12/16 09:46:36;;;;;;;46.65;11.50;;;7.70;99.90;;;;;;4993067;28;20041;-70
2023/12/16 09:49:04;;;;;;;53.67;12.15;;;7.80;99.90;;;;;;4993657;28;20039;-72
2023/12/16 09:51:30;;;;;;;50.65;12.40;;;7.70;99.90;;;;;;4993977;28;20061;-70
2023/12/16 09:53:56;;;;;;;41.17;13.38;;;7.80;99.90;;;;;;4993101;28;20042;-69
2023/12/16 09:56:22;;;;;;;49.03;13.65;;;7.80;99.90;;;;;;4994008;28;20038;-68
2023/12/16 09:58:49;;;;;;;44.08;13.77;;;7.80;99.90;;;;;;4994288;28;20033;-69
2023/12/16 10:01:17;;;;;;;35.70;12.85;;;7.80;99.90;;;;;;4992657;28;20027;-70
2023/12/16 10:03:45;;;;;;;42.40;11.93;;;7.70;99.90;;;;;;4991456;28;20041;-70
2023/12/16 10:06:11;;;;;;;43.53;13.82;;;7.80;99.90;;;;;;4989217;28;20045;-70
2023/12/16 10:08:38;;;;;;;67.63;20.20;;;7.80;99.90;;;;;;4993058;28;20030;-71
2023/12/16 10:11:04;;;;;;;62.63;16.27;;;7.80;99.90;;;;;;4990380;28;20141;-73
2023/12/16 10:13:32;;;;;;;50.28;15.32;;;7.80;99.90;;;;;;4991036;28;20041;-71
2023/12/16 10:15:59;;;;;;;63.25;15.70;;;7.70;99.90;;;;;;4993671;28;20034;-71
2023/12/16 10:18:26;;;;;;;47.55;15.00;;;7.80;99.90;;;;;;4993516;28;20045;-68
2023/12/16 10:20:55;;;;;;;51.05;15.43;;;7.70;99.90;;;;;;4992032;28;20050;-70
2023/12/16 10:23:20;;;;;;;46.85;15.15;;;7.70;99.90;;;;;;4993257;28;20096;-68
2023/12/16 10:25:46;;;;;;;42.40;15.88;;;7.70;99.90;;;;;;4993140;28;20065;-70
2023/12/16 10:28:12;;;;;;;45.50;15.93;;;7.80;99.90;;;;;;4992659;28;20050;-69
2023/12/16 10:30:37;;;;;;;49.63;16.75;;;7.70;99.90;;;;;;4983902;28;20026;-68
2023/12/16 10:33:03;;;;;;;53.22;15.13;;;7.70;99.90;;;;;;4986292;28;20046;-72
2023/12/16 10:35:30;;;;;;;47.30;15.27;;;7.80;99.90;;;;;;4986776;28;20499;-70
2023/12/16 10:37:56;;;;;;;49.70;15.80;;;7.80;99.90;;;;;;4990402;28;20045;-72
2023/12/16 10:40:26;;;;;;;54.38;18.15;;;7.70;99.90;;;;;;4988677;28;20086;-71
2023/12/16 10:42:51;;;;;;;48.78;16.13;;;7.70;99.90;;;;;;4992128;28;20030;-70
2023/12/16 10:45:17;;;;;;;47.25;16.95;;;7.70;99.90;;;;;;4992655;28;20628;-70
2023/12/16 10:47:45;;;;;;;44.65;15.80;;;7.70;99.90;;;;;;4990895;28;20033;-70
2023/12/16 10:50:13;;;;;;;55.13;17.75;;;7.70;99.90;;;;;;4990400;28;20061;-69
2023/12/16 10:52:42;;;;;;;48.17;15.57;;;7.70;99.90;;;;;;4990968;28;20049;-71
2023/12/16 10:55:16;;;;;;;48.42;16.17;;;7.70;99.90;;;;;;4990731;28;20039;-70
2023/12/16 10:57:55;;;;;;;41.95;16.13;;;7.70;99.90;;;;;;4988993;28;20031;-72
2023/12/16 11:00:25;;;;;;;46.33;17.35;;;7.70;99.90;;;;;;4991055;28;20030;-70
2023/12/16 11:03:03;;;;;;;50.05;18.10;;;7.70;99.90;;;;;;4991151;28;20113;-70
2023/12/16 11:05:32;;;;;;;50.70;17.13;;;7.70;99.90;;;;;;4992029;28;20069;-69
2023/12/16 11:08:02;;;;;;;56.55;17.15;;;7.60;99.90;;;;;;4990068;28;20089;-69
2023/12/16 11:10:30;;;;;;;50.08;17.70;;;7.60;99.90;;;;;;4988598;28;20022;-71
2023/12/16 11:12:57;;;;;;;51.20;17.50;;;7.60;99.90;;;;;;4990746;28;20031;-70
2023/12/16 11:15:24;;;;;;;47.58;17.25;;;7.70;99.90;;;;;;4992217;28;20023;-71
2023/12/16 11:17:56;;;;;;;59.83;18.67;;;7.60;99.90;;;;;;4991577;28;20084;-70
2023/12/16 11:20:31;;;;;;;62.28;18.90;;;7.60;99.90;;;;;;4992657;28;20034;-71
2023/12/16 11:22:58;;;;;;;56.80;17.85;;;7.70;99.90;;;;;;4992135;28;20051;-70
2023/12/16 11:25:26;;;;;;;60.90;18.35;;;7.70;99.90;;;;;;4990266;28;20041;-70
2023/12/16 11:27:56;;;;;;;61.17;19.77;;;7.70;99.90;;;;;;4991735;28;20042;-70
2023/12/16 11:30:22;;;;;;;61.95;19.10;;;7.70;99.90;;;;;;4991762;28;20030;-70
2023/12/16 11:32:55;;;;;;;62.10;20.00;;;7.70;99.90;;;;;;4989377;28;20034;-70
2023/12/16 11:35:37;;;;;;;66.45;18.20;;;7.70;99.90;;;;;;4991594;28;20066;-71
2023/12/16 11:38:06;;;;;;;53.22;17.27;;;7.70;99.90;;;;;;4991635;28;20120;-70
2023/12/16 11:40:43;;;;;;;59.97;20.23;;;7.70;99.90;;;;;;4990529;28;20105;-68
2023/12/16 11:43:13;;;;;;;49.42;18.83;;;7.70;99.90;;;;;;4992086;28;20030;-68
2023/12/16 11:45:46;;;;;;;54.08;19.27;;;7.70;99.90;;;;;;4991476;28;20030;-69
2023/12/16 11:48:16;;;;;;;57.95;20.77;;;7.70;99.90;;;;;;4992474;28;20031;-69
2023/12/16 11:50:46;;;;;;;56.00;18.80;;;7.70;99.90;;;;;;4989624;28;20023;-68
2023/12/16 11:53:14;;;;;;;64.50;19.73;;;7.70;99.90;;;;;;5004051;28;20033;-70
2023/12/16 11:55:40;;;;;;;54.63;19.70;;;7.70;99.90;;;;;;4989194;28;20037;-70
2023/12/16 11:58:06;;;;;;;54.17;17.40;;;7.70;99.90;;;;;;4989755;28;20035;-69
2023/12/16 12:00:32;;;;;;;54.70;17.50;;;7.80;99.90;;;;;;4991156;28;20050;-69
2023/12/16 12:03:01;;;;;;;57.00;18.40;;;7.80;99.90;;;;;;4990657;28;20041;-69
2023/12/16 12:05:28;;;;;;;53.33;18.77;;;7.80;99.90;;;;;;4989608;28;20049;-70
2023/12/16 12:07:54;;;;;;;62.00;19.45;;;7.80;99.90;;;;;;4992010;28;20026;-70
2023/12/16 12:10:20;;;;;;;52.30;17.83;;;7.90;99.90;;;;;;4987539;28;20090;-69
2023/12/16 12:12:55;;;;;;;60.70;18.40;;;7.90;99.90;;;;;;4988307;28;20050;-70
2023/12/16 12:15:21;;;;;;;60.58;19.40;;;7.90;99.90;;;;;;4989751;28;20038;-71
2023/12/16 12:17:47;;;;;;;58.90;18.20;;;7.90;99.90;;;;;;4989924;28;20610;-70
2023/12/16 12:20:13;;;;;;;49.67;16.45;;;7.90;99.90;;;;;;4989257;28;20030;-70
2023/12/16 12:22:40;;;;;;;55.83;19.15;;;7.90;99.90;;;;;;4990792;28;20738;-71
2023/12/16 12:25:06;;;;;;;61.83;18.83;;;7.90;99.90;;;;;;4989260;28;20219;-69
2023/12/16 12:27:32;;;;;;;63.03;18.65;;;7.90;99.90;;;;;;4988460;28;20049;-69
2023/12/16 12:29:59;;;;;;;56.38;18.33;;;7.90;99.90;;;;;;4988370;28;20034;-70
2023/12/16 12:32:30;;;;;;;58.75;19.55;;;7.90;99.90;;;;;;4991641;28;20026;-71
2023/12/16 12:35:04;;;;;;;55.63;18.25;;;8.00;99.90;;;;;;4991077;28;20038;-72
2023/12/16 12:37:37;;;;;;;54.95;17.45;;;8.00;99.90;;;;;;4990793;28;20027;-71
2023/12/16 12:40:05;;;;;;;49.13;18.50;;;7.90;99.90;;;;;;4989626;28;20066;-71